createdAt,value
2023-03-29T00:02:19.792Z,99219.66
2023-03-29T00:04:47.242Z,99213.69
2023-03-29T00:07:14.487Z,99212.22
2023-03-29T00:09:42.627Z,99206.63
2023-03-29T00:12:11.705Z,99204.06
2023-03-29T00:14:38.675Z,99182.28
2023-03-29T00:17:06.490Z,99183.78
2023-03-29T00:19:35.895Z,99197.88
2023-03-29T00:22:06.122Z,99199.75
2023-03-29T00:24:33.246Z,99195.56
2023-03-29T00:27:00.436Z,99200.38
2023-03-29T00:29:27.541Z,99179.66
2023-03-29T00:31:56.084Z,99186.81
2023-03-29T00:34:24.359Z,99187.69
2023-03-29T00:36:53.139Z,99192.16
2023-03-29T00:39:21.277Z,99178.47
2023-03-29T00:41:49.901Z,99194.22
2023-03-29T00:44:54.370Z,99181.91
2023-03-29T00:47:51.448Z,99176.06
2023-03-29T00:50:29.759Z,99179.66
2023-03-29T00:53:03.828Z,99173.50
2023-03-29T00:55:45.586Z,99170.59
2023-03-29T00:58:15.962Z,99176.75
2023-03-29T01:00:52.256Z,99181.22
2023-03-29T01:03:24.903Z,99175.22
2023-03-29T01:05:58.498Z,99172.38
2023-03-29T01:08:51.703Z,99173.22
2023-03-29T01:11:24.205Z,99168.97
2023-03-29T01:13:59.387Z,99160.22
2023-03-29T01:16:29.040Z,99152.38
2023-03-29T01:19:00.481Z,99164.00
2023-03-29T01:21:33.392Z,99162.97
2023-03-29T01:24:07.096Z,99155.13
2023-03-29T01:27:12.642Z,99162.06
2023-03-29T01:30:04.340Z,99153.41
2023-03-29T01:32:42.519Z,99142.97
2023-03-29T01:35:32.680Z,99143.91
2023-03-29T01:38:22.858Z,99139.78
2023-03-29T01:40:49.985Z,99132.22
2023-03-29T01:43:36.860Z,99127.47
2023-03-29T01:46:10.503Z,99124.22
2023-03-29T01:48:59.907Z,99111.91
2023-03-29T01:51:42.794Z,99125.03
2023-03-29T01:54:20.872Z,99111.13
2023-03-29T01:56:50.600Z,99117.19
2023-03-29T01:59:23.031Z,99119.00
2023-03-29T02:01:54.889Z,99113.00
2023-03-29T02:04:27.985Z,99111.47
2023-03-29T02:06:57.842Z,99092.25
2023-03-29T02:09:24.831Z,99094.81
2023-03-29T02:11:52.846Z,99101.72
2023-03-29T02:14:20.127Z,99095.16
2023-03-29T02:17:21.674Z,99074.38
2023-03-29T02:19:55.146Z,99089.16
2023-03-29T02:22:28.813Z,99086.59
2023-03-29T02:24:59.275Z,99066.25
2023-03-29T02:27:29.225Z,99068.16
2023-03-29T02:29:58.440Z,99056.03
2023-03-29T02:32:54.312Z,99061.38
2023-03-29T02:35:34.322Z,99076.75
2023-03-29T02:38:05.984Z,99074.22
2023-03-29T02:40:34.860Z,99068.44
2023-03-29T02:43:05.128Z,99084.06
2023-03-29T02:45:33.178Z,99081.56
2023-03-29T02:48:09.063Z,99071.88
2023-03-29T02:50:39.962Z,99051.63
2023-03-29T02:53:13.349Z,99062.03
2023-03-29T02:55:42.083Z,99057.72
2023-03-29T02:58:09.386Z,99055.09
2023-03-29T03:00:42.576Z,99063.84
2023-03-29T03:03:10.462Z,99058.81
2023-03-29T03:05:38.526Z,99048.34
2023-03-29T03:08:07.568Z,99055.50
2023-03-29T03:10:35.539Z,99036.94
2023-03-29T03:13:04.200Z,99057.16
2023-03-29T03:15:35.895Z,99058.00
2023-03-29T03:18:04.059Z,99048.44
2023-03-29T03:20:32.195Z,99046.84
2023-03-29T03:22:59.282Z,99039.94
2023-03-29T03:25:26.510Z,99059.88
2023-03-29T03:27:54.393Z,99047.81
2023-03-29T03:30:24.149Z,99035.91
2023-03-29T03:33:29.327Z,99044.38
2023-03-29T03:36:29.240Z,99024.63
2023-03-29T03:38:57.251Z,99044.75
2023-03-29T03:41:26.199Z,99048.22
2023-03-29T03:43:53.457Z,99047.19
2023-03-29T03:46:20.740Z,99048.91
2023-03-29T03:48:48.536Z,99039.66
2023-03-29T03:51:27.993Z,99038.69
2023-03-29T03:53:55.040Z,99045.78
2023-03-29T03:56:34.439Z,99047.50
2023-03-29T03:59:07.365Z,99041.22
2023-03-29T04:01:53.000Z,99033.66
2023-03-29T04:04:23.615Z,99037.06
2023-03-29T04:07:02.882Z,99020.75
2023-03-29T04:09:48.957Z,99023.91
2023-03-29T04:12:34.633Z,99027.88
2023-03-29T04:15:02.495Z,99029.84
2023-03-29T04:17:31.993Z,99022.94
2023-03-29T04:20:19.015Z,99035.09
2023-03-29T04:22:46.222Z,99028.00
2023-03-29T04:25:13.516Z,99036.72
2023-03-29T04:27:50.602Z,99029.97
2023-03-29T04:30:33.981Z,99017.91
2023-03-29T04:33:11.318Z,99015.56
2023-03-29T04:35:41.227Z,99022.41
2023-03-29T04:38:12.669Z,99020.09
2023-03-29T04:40:40.809Z,99010.72
2023-03-29T04:43:17.805Z,99006.66
2023-03-29T04:45:55.312Z,98932.78
2023-03-29T04:48:48.769Z,98990.97
2023-03-29T04:51:17.724Z,99008.19
2023-03-29T04:53:45.569Z,98976.66
2023-03-29T04:56:12.601Z,98941.06
2023-03-29T04:59:08.434Z,99005.25
2023-03-29T05:01:35.795Z,98930.53
2023-03-29T05:04:03.499Z,99004.59
2023-03-29T05:06:37.411Z,99010.00
2023-03-29T05:09:07.739Z,99008.09
2023-03-29T05:12:04.292Z,99008.25
2023-03-29T05:14:42.400Z,98987.41
2023-03-29T05:17:09.566Z,99005.00
2023-03-29T05:19:37.507Z,98957.59
2023-03-29T05:22:04.752Z,98985.56
2023-03-29T05:24:32.661Z,98998.53
2023-03-29T05:27:05.100Z,98991.66
2023-03-29T05:29:34.773Z,99006.41
2023-03-29T05:32:22.347Z,99001.03
2023-03-29T05:34:49.369Z,98992.34
2023-03-29T05:37:17.264Z,98993.16
2023-03-29T05:39:52.631Z,98995.75
2023-03-29T05:42:23.728Z,98997.66
2023-03-29T05:44:55.120Z,98995.19
2023-03-29T05:47:22.564Z,98989.06
2023-03-29T05:49:50.488Z,98997.78
2023-03-29T05:52:22.323Z,98994.50
2023-03-29T05:54:49.278Z,98991.13
2023-03-29T05:57:17.087Z,99003.47
2023-03-29T05:59:44.390Z,99006.81
2023-03-29T06:02:12.574Z,98995.72
2023-03-29T06:04:45.026Z,98996.69
2023-03-29T06:07:24.559Z,99001.09
2023-03-29T06:10:10.653Z,98984.53
2023-03-29T06:12:40.914Z,99007.19
2023-03-29T06:15:09.090Z,99001.97
2023-03-29T06:17:45.995Z,98995.16
2023-03-29T06:20:14.481Z,98980.34
2023-03-29T06:22:46.832Z,98989.97
2023-03-29T06:25:15.684Z,98981.38
2023-03-29T06:27:46.845Z,98990.97
2023-03-29T06:30:16.482Z,98995.97
2023-03-29T06:32:49.962Z,98978.00
2023-03-29T06:35:43.761Z,98996.28
2023-03-29T06:38:15.331Z,98981.69
2023-03-29T06:41:07.624Z,98974.72
2023-03-29T06:44:10.383Z,98983.31
2023-03-29T06:46:49.096Z,98960.75
2023-03-29T06:49:16.042Z,98987.53
2023-03-29T06:52:03.277Z,98982.41
2023-03-29T06:54:31.343Z,98978.97
2023-03-29T06:57:05.449Z,98987.59
2023-03-29T06:59:35.046Z,98975.47
2023-03-29T07:02:13.287Z,98964.31
2023-03-29T07:05:13.718Z,98980.69
2023-03-29T07:07:55.264Z,98966.09
2023-03-29T07:10:41.469Z,98984.28
2023-03-29T07:13:34.446Z,98955.00
2023-03-29T07:16:04.944Z,98954.09
2023-03-29T07:18:50.357Z,98986.25
2023-03-29T07:21:37.858Z,98980.03
2023-03-29T07:24:06.899Z,98989.63
2023-03-29T07:26:36.001Z,98982.66
2023-03-29T07:29:03.094Z,98973.19
2023-03-29T07:31:30.829Z,98972.19
2023-03-29T07:34:17.853Z,98915.81
2023-03-29T07:36:45.327Z,98951.31
2023-03-29T07:39:15.747Z,98979.03
2023-03-29T07:41:57.816Z,98981.38
2023-03-29T07:44:25.084Z,98967.69
2023-03-29T07:46:52.328Z,98978.03
2023-03-29T07:49:20.995Z,98986.00
2023-03-29T07:51:49.420Z,98956.38
2023-03-29T07:54:16.450Z,98971.41
2023-03-29T07:57:03.922Z,98974.06
2023-03-29T07:59:39.336Z,98964.50
2023-03-29T08:02:13.585Z,98976.56
2023-03-29T08:04:49.887Z,98960.06
2023-03-29T08:07:21.646Z,98976.56
2023-03-29T08:10:04.262Z,98973.31
2023-03-29T08:12:49.294Z,98973.31
2023-03-29T08:15:17.491Z,98969.03
2023-03-29T08:17:45.138Z,98970.06
2023-03-29T08:20:16.356Z,98963.06
2023-03-29T08:22:46.183Z,98983.81
2023-03-29T08:25:15.785Z,98959.50
2023-03-29T08:27:46.884Z,98971.66
2023-03-29T08:30:18.355Z,98951.75
2023-03-29T08:32:48.663Z,98982.16
2023-03-29T08:35:18.034Z,98976.91
2023-03-29T08:37:59.746Z,98958.69
2023-03-29T08:40:30.126Z,98960.56
2023-03-29T08:43:12.555Z,98968.28
2023-03-29T08:46:06.410Z,98966.66
2023-03-29T08:49:02.734Z,98965.09
2023-03-29T08:51:50.452Z,98966.78
2023-03-29T08:54:25.113Z,98964.25
2023-03-29T08:57:22.833Z,98972.06
2023-03-29T08:59:56.212Z,98959.78
2023-03-29T09:02:28.766Z,98945.16
2023-03-29T09:05:09.426Z,98955.59
2023-03-29T09:07:47.615Z,98957.38
2023-03-29T09:10:18.345Z,98953.81
2023-03-29T09:13:09.481Z,98946.81
2023-03-29T09:16:06.837Z,98951.22
2023-03-29T09:19:17.189Z,98957.34
2023-03-29T09:21:59.362Z,98951.25
2023-03-29T09:25:00.727Z,98944.25
2023-03-29T09:27:54.616Z,98939.94
2023-03-29T09:30:50.205Z,98952.84
2023-03-29T09:33:25.025Z,98938.13
2023-03-29T09:36:29.246Z,98920.88
2023-03-29T09:38:57.037Z,98941.66
2023-03-29T09:41:43.431Z,98933.81
2023-03-29T09:44:28.123Z,98941.44
2023-03-29T09:47:10.024Z,98939.81
2023-03-29T09:49:47.462Z,98944.22
2023-03-29T09:52:17.143Z,98949.34
2023-03-29T09:54:52.601Z,98951.13
2023-03-29T09:57:22.396Z,98948.63
2023-03-29T09:59:51.791Z,98946.03
2023-03-29T10:02:21.216Z,98950.34
2023-03-29T10:05:04.138Z,98954.75
2023-03-29T10:07:44.783Z,98956.47
2023-03-29T10:10:27.449Z,98940.91
2023-03-29T10:12:59.582Z,98952.16
2023-03-29T10:15:30.869Z,98940.88
2023-03-29T10:18:05.922Z,98956.34
2023-03-29T10:20:36.890Z,98945.91
2023-03-29T10:23:08.058Z,98955.53
2023-03-29T10:25:43.035Z,98957.28
2023-03-29T10:28:18.760Z,98955.41
2023-03-29T10:30:52.522Z,98944.94
2023-03-29T10:33:22.103Z,98933.50
2023-03-29T10:35:49.342Z,98921.44
2023-03-29T10:38:19.367Z,98957.94
2023-03-29T10:40:51.905Z,98950.13
2023-03-29T10:43:26.224Z,98956.09
2023-03-29T10:46:06.009Z,98948.41
2023-03-29T10:48:36.102Z,98943.84
2023-03-29T10:51:05.772Z,98933.66
2023-03-29T10:53:35.334Z,98938.00
2023-03-29T10:56:08.312Z,98925.78
2023-03-29T10:59:08.766Z,98936.00
2023-03-29T11:02:13.969Z,98944.59
2023-03-29T11:05:00.316Z,98939.34
2023-03-29T11:07:50.952Z,98913.56
2023-03-29T11:10:53.077Z,98941.97
2023-03-29T11:13:41.258Z,98943.66
2023-03-29T11:16:30.039Z,98930.00
2023-03-29T11:19:02.831Z,98950.81
2023-03-29T11:22:07.132Z,98949.09
2023-03-29T11:24:59.950Z,98947.38
2023-03-29T11:28:03.811Z,98949.72
2023-03-29T11:30:34.042Z,98943.44
2023-03-29T11:33:07.197Z,98947.88
2023-03-29T11:36:05.031Z,98939.88
2023-03-29T11:38:37.876Z,98946.19
2023-03-29T11:41:16.035Z,98939.13
2023-03-29T11:43:55.198Z,98927.22
2023-03-29T11:46:28.933Z,98928.94
2023-03-29T11:49:17.126Z,98943.72
2023-03-29T11:51:56.971Z,98934.06
2023-03-29T11:54:41.213Z,98928.88
2023-03-29T11:57:32.149Z,98923.84
2023-03-29T12:00:02.784Z,98947.13
2023-03-29T12:02:49.614Z,98932.34
2023-03-29T12:05:24.557Z,98948.91
2023-03-29T12:08:16.710Z,98926.38
2023-03-29T12:10:56.763Z,98935.84
2023-03-29T12:13:32.432Z,98942.75
2023-03-29T12:16:02.623Z,98940.97
2023-03-29T12:18:36.990Z,98924.47
2023-03-29T12:21:12.275Z,98953.94
2023-03-29T12:23:42.457Z,98950.50
2023-03-29T12:26:17.250Z,98946.31
2023-03-29T12:29:07.226Z,98951.44
2023-03-29T12:32:11.614Z,98956.69
2023-03-29T12:34:48.051Z,98953.28
2023-03-29T12:37:41.544Z,98950.69
2023-03-29T12:40:28.660Z,98949.78
2023-03-29T12:43:31.576Z,98922.06
2023-03-29T12:46:27.366Z,98936.66
2023-03-29T12:49:05.929Z,98951.38
2023-03-29T12:51:35.254Z,98942.63
2023-03-29T12:54:21.993Z,98960.06
2023-03-29T12:56:52.213Z,98969.31
2023-03-29T12:59:47.059Z,98964.13
2023-03-29T13:02:14.156Z,98972.69
2023-03-29T13:04:44.338Z,98919.97
2023-03-29T13:07:27.540Z,98972.06
2023-03-29T13:10:00.003Z,98977.31
2023-03-29T13:12:35.980Z,98975.50
2023-03-29T13:15:05.974Z,98968.31
2023-03-29T13:18:00.266Z,98954.59
2023-03-29T13:20:33.185Z,98977.84
2023-03-29T13:23:31.930Z,98989.06
2023-03-29T13:26:19.135Z,98977.16
2023-03-29T13:29:01.208Z,98989.97
2023-03-29T13:31:54.250Z,98979.59
2023-03-29T13:34:23.882Z,98973.50
2023-03-29T13:36:57.023Z,98988.91
2023-03-29T13:39:29.515Z,98958.75
2023-03-29T13:42:28.939Z,98972.00
2023-03-29T13:45:13.316Z,98984.88
2023-03-29T13:47:48.850Z,98995.16
2023-03-29T13:50:35.029Z,99003.72
2023-03-29T13:53:20.917Z,99003.63
2023-03-29T13:55:51.263Z,98986.34
2023-03-29T13:58:27.486Z,98994.09
2023-03-29T14:01:29.597Z,99000.28
2023-03-29T14:03:57.689Z,98978.56
2023-03-29T14:06:30.000Z,99010.63
2023-03-29T14:08:57.073Z,98997.59
2023-03-29T14:11:29.968Z,99016.66
2023-03-29T14:13:59.464Z,99000.19
2023-03-29T14:16:36.975Z,99012.41
2023-03-29T14:19:06.654Z,99007.06
2023-03-29T14:21:34.162Z,98955.94
2023-03-29T14:24:02.758Z,99001.84
2023-03-29T14:26:32.468Z,99012.31
2023-03-29T14:29:01.446Z,99003.69
2023-03-29T14:31:36.828Z,99017.50
2023-03-29T14:34:06.877Z,99011.31
2023-03-29T14:36:34.526Z,99015.63
2023-03-29T14:39:17.551Z,98987.03
2023-03-29T14:41:53.246Z,99032.13
2023-03-29T14:44:27.525Z,99036.41
2023-03-29T14:46:55.422Z,99033.63
2023-03-29T14:49:23.658Z,99036.38
2023-03-29T14:51:52.225Z,99039.72
2023-03-29T14:54:32.770Z,99043.13
2023-03-29T14:57:03.598Z,99043.13
2023-03-29T14:59:41.440Z,99004.81
2023-03-29T15:02:27.280Z,99034.28
2023-03-29T15:04:56.754Z,99047.41
2023-03-29T15:07:25.960Z,99049.13
2023-03-29T15:09:53.799Z,99050.88
2023-03-29T15:12:21.243Z,99039.53
2023-03-29T15:14:52.183Z,99057.00
2023-03-29T15:17:39.435Z,99055.25
2023-03-29T15:20:32.025Z,99050.78
2023-03-29T15:23:09.735Z,99072.44
2023-03-29T15:25:51.969Z,99071.69
2023-03-29T15:28:46.897Z,99082.84
2023-03-29T15:31:19.381Z,99074.97
2023-03-29T15:33:47.520Z,99078.44
2023-03-29T15:36:15.600Z,99069.84
2023-03-29T15:38:45.076Z,99075.13
2023-03-29T15:41:14.185Z,99086.09
2023-03-29T15:43:42.112Z,99072.44
2023-03-29T15:46:12.070Z,99079.38
2023-03-29T15:48:39.061Z,99084.66
2023-03-29T15:51:06.912Z,99082.16
2023-03-29T15:53:35.617Z,99070.78
2023-03-29T15:56:05.652Z,99092.34
2023-03-29T15:58:34.551Z,99088.97
2023-03-29T16:01:19.341Z,99080.25
2023-03-29T16:03:48.089Z,99090.66
2023-03-29T16:06:16.818Z,99106.22
2023-03-29T16:08:43.889Z,99093.28
2023-03-29T16:11:11.735Z,99094.09
2023-03-29T16:13:38.869Z,99106.88
2023-03-29T16:16:06.797Z,99099.97
2023-03-29T16:18:34.118Z,99110.47
2023-03-29T16:21:01.127Z,99094.19
2023-03-29T16:23:28.107Z,99115.09
2023-03-29T16:25:55.997Z,99123.53
2023-03-29T16:28:23.008Z,99064.63
2023-03-29T16:30:49.995Z,99116.69
2023-03-29T16:33:16.976Z,99128.91
2023-03-29T16:35:44.098Z,99121.97
2023-03-29T16:38:11.173Z,99131.38
2023-03-29T16:40:38.487Z,99136.47
2023-03-29T16:43:05.844Z,99137.94
2023-03-29T16:45:32.919Z,99091.97
2023-03-29T16:47:59.920Z,99120.72
2023-03-29T16:50:26.998Z,99109.56
2023-03-29T16:52:54.205Z,99140.66
2023-03-29T16:55:21.220Z,99144.22
2023-03-29T16:57:48.958Z,99134.81
2023-03-29T17:00:18.696Z,99140.75
2023-03-29T17:02:49.775Z,99121.72
2023-03-29T17:05:18.918Z,99145.19
2023-03-29T17:07:46.937Z,99136.44
2023-03-29T17:10:14.408Z,99151.84
2023-03-29T17:12:41.614Z,99141.47
2023-03-29T17:15:09.569Z,99153.53
2023-03-29T17:17:37.875Z,99152.63
2023-03-29T17:20:08.735Z,99154.44
2023-03-29T17:22:36.199Z,99155.19
2023-03-29T17:25:06.347Z,99156.03
2023-03-29T17:27:34.917Z,99164.72
2023-03-29T17:30:02.318Z,99158.84
2023-03-29T17:32:31.463Z,99127.72
2023-03-29T17:34:59.575Z,99139.91
2023-03-29T17:37:27.921Z,99158.22
2023-03-29T17:39:54.976Z,99149.66
2023-03-29T17:42:21.900Z,99140.97
2023-03-29T17:44:48.961Z,99144.44
2023-03-29T17:47:15.992Z,99146.28
2023-03-29T17:49:42.910Z,99143.75
2023-03-29T17:52:09.870Z,99131.63
2023-03-29T17:54:36.826Z,99130.81
2023-03-29T17:57:04.580Z,99144.63
2023-03-29T17:59:31.616Z,99141.91
2023-03-29T18:02:00.195Z,99149.66
2023-03-29T18:04:27.204Z,99154.06
2023-03-29T18:06:55.087Z,99153.97
2023-03-29T18:09:22.195Z,99154.00
2023-03-29T18:11:49.234Z,99149.56
2023-03-29T18:14:16.478Z,99152.97
2023-03-29T18:16:43.619Z,99174.69
2023-03-29T18:19:10.908Z,99167.88
2023-03-29T18:21:37.847Z,99178.97
2023-03-29T18:24:04.978Z,99174.63
2023-03-29T18:26:32.879Z,99178.06
2023-03-29T18:28:59.846Z,99109.38
2023-03-29T18:31:28.125Z,99180.69
2023-03-29T18:33:55.108Z,99188.47
2023-03-29T18:36:22.200Z,99188.38
2023-03-29T18:38:49.256Z,99171.16
2023-03-29T18:41:16.369Z,99183.31
2023-03-29T18:43:44.334Z,99143.38
2023-03-29T18:46:11.406Z,99191.81
2023-03-29T18:48:39.170Z,99176.78
2023-03-29T18:51:07.805Z,99176.91
2023-03-29T18:53:35.686Z,99190.03
2023-03-29T18:56:04.567Z,99197.94
2023-03-29T18:58:32.297Z,99198.06
2023-03-29T19:01:04.301Z,99183.09
2023-03-29T19:03:32.704Z,99205.72
2023-03-29T19:06:00.080Z,99195.38
2023-03-29T19:08:27.570Z,99204.03
2023-03-29T19:11:01.152Z,99193.59
2023-03-29T19:13:28.199Z,99204.09
2023-03-29T19:15:55.258Z,99205.72
2023-03-29T19:18:22.415Z,99203.13
2023-03-29T19:20:51.318Z,99206.66
2023-03-29T19:23:18.440Z,99210.97
2023-03-29T19:25:56.567Z,99192.81
2023-03-29T19:28:25.110Z,99205.88
2023-03-29T19:30:52.377Z,99209.28
2023-03-29T19:33:20.059Z,99189.22
2023-03-29T19:35:49.563Z,99202.28
2023-03-29T19:38:16.632Z,99210.78
2023-03-29T19:40:51.490Z,99220.41
2023-03-29T19:43:20.784Z,99219.41
2023-03-29T19:45:49.936Z,99205.63
2023-03-29T19:50:48.316Z,99213.41
2023-03-29T19:53:15.407Z,99216.63
2023-03-29T19:55:44.322Z,99217.69
2023-03-29T19:58:11.382Z,99217.72
2023-03-29T20:00:39.086Z,99198.50
2023-03-29T20:03:10.169Z,99216.84
2023-03-29T20:05:38.926Z,99215.88
2023-03-29T20:08:06.895Z,99218.41
2023-03-29T20:10:35.355Z,99215.97
2023-03-29T20:13:03.216Z,99211.53
2023-03-29T20:15:30.513Z,99155.91
2023-03-29T20:17:59.917Z,99213.31
2023-03-29T20:20:27.566Z,99201.16
2023-03-29T20:22:58.570Z,99212.41
2023-03-29T20:25:25.995Z,99199.44
2023-03-29T20:27:53.328Z,99215.13
2023-03-29T20:30:20.701Z,99203.91
2023-03-29T20:32:47.838Z,99208.09
2023-03-29T20:35:14.863Z,99216.81
2023-03-29T20:37:41.880Z,99217.63
2023-03-29T20:40:11.310Z,99203.69
2023-03-29T20:42:39.628Z,99217.69
2023-03-29T20:45:08.079Z,99214.13
2023-03-29T20:47:50.540Z,99187.94
2023-03-29T20:50:19.410Z,99214.84
2023-03-29T20:52:46.777Z,99212.13
2023-03-29T20:55:16.819Z,99215.72
2023-03-29T20:57:43.766Z,99212.31
2023-03-29T21:00:13.856Z,99212.31
2023-03-29T21:02:41.023Z,99213.16
2023-03-29T21:05:08.783Z,99206.22
2023-03-29T21:07:36.527Z,99212.22
2023-03-29T21:10:04.163Z,99220.06
2023-03-29T21:12:31.627Z,99204.41
2023-03-29T21:14:58.585Z,99213.94
2023-03-29T21:17:25.616Z,99226.91
2023-03-29T21:19:53.312Z,99229.44
2023-03-29T21:22:20.250Z,99236.31
2023-03-29T21:24:47.184Z,99235.44
2023-03-29T21:27:14.193Z,99232.09
2023-03-29T21:29:41.642Z,99232.00
2023-03-29T21:32:09.166Z,99235.06
2023-03-29T21:34:36.274Z,99237.84
2023-03-29T21:37:03.306Z,99229.34
2023-03-29T21:39:30.506Z,99219.78
2023-03-29T21:41:57.466Z,99220.50
2023-03-29T21:44:24.548Z,99211.75
2023-03-29T21:46:51.625Z,99238.59
2023-03-29T21:49:18.726Z,99230.81
2023-03-29T21:51:46.526Z,99229.16
2023-03-29T21:54:13.547Z,99242.22
2023-03-29T21:56:40.553Z,99238.88
2023-03-29T21:59:07.507Z,99215.50
2023-03-29T22:01:34.584Z,99229.28
2023-03-29T22:04:01.556Z,99234.53
2023-03-29T22:06:28.638Z,99235.50
2023-03-29T22:08:55.666Z,99218.97
2023-03-29T22:11:23.428Z,99231.25
2023-03-29T22:13:52.451Z,99237.28
2023-03-29T22:16:19.495Z,99224.28
2023-03-29T22:18:49.752Z,99240.66
2023-03-29T22:21:25.450Z,99170.19
2023-03-29T22:23:55.537Z,99230.25
2023-03-29T22:26:24.949Z,99227.72
2023-03-29T22:28:51.915Z,99236.41
2023-03-29T22:31:21.328Z,99239.88
2023-03-29T22:33:48.985Z,99238.81
2023-03-29T22:36:24.230Z,99236.91
2023-03-29T22:38:51.671Z,99231.69
2023-03-29T22:41:20.390Z,99242.91
2023-03-29T22:43:47.565Z,99243.75
2023-03-29T22:46:14.819Z,99240.97
2023-03-29T22:48:41.878Z,99230.47
2023-03-29T22:51:08.821Z,99221.63
2023-03-29T22:53:35.959Z,99219.97
2023-03-29T22:56:04.212Z,99233.97
2023-03-29T22:58:31.334Z,99232.44
2023-03-29T23:00:58.458Z,99172.31
2023-03-29T23:03:25.570Z,99218.44
2023-03-29T23:05:55.231Z,99222.97
2023-03-29T23:08:25.286Z,99233.31
2023-03-29T23:10:52.876Z,99236.03
2023-03-29T23:13:24.216Z,99231.00
2023-03-29T23:15:53.892Z,99215.34
2023-03-29T23:18:22.353Z,99223.03
2023-03-29T23:20:51.874Z,99227.47
2023-03-29T23:23:20.530Z,99222.41
2023-03-29T23:25:48.760Z,99220.69
2023-03-29T23:28:21.837Z,99222.34
2023-03-29T23:31:03.083Z,99223.41
2023-03-29T23:33:35.964Z,99212.19
2023-03-29T23:36:06.106Z,99221.81
2023-03-29T23:38:34.521Z,99221.88
2023-03-29T23:41:03.916Z,99201.06
2023-03-29T23:43:33.903Z,99217.53
2023-03-29T23:46:03.380Z,99211.44
2023-03-29T23:48:30.621Z,99217.63
2023-03-29T23:50:57.576Z,99221.13
2023-03-29T23:53:28.528Z,99225.38
2023-03-29T23:56:00.573Z,99220.94
2023-03-29T23:58:28.871Z,99199.19
